createdAt,value
2023-04-11T00:00:08.380Z,100871.31
2023-04-11T00:05:16.917Z,100866.75
2023-04-11T00:10:20.310Z,100871.88
2023-04-11T00:15:26.849Z,100868.47
2023-04-11T00:20:31.536Z,100866.88
2023-04-11T00:25:34.781Z,100854.78
2023-04-11T00:30:37.967Z,100866.94
2023-04-11T00:35:42.549Z,100874.81
2023-04-11T00:40:46.461Z,100884.47
2023-04-11T00:45:50.019Z,100888.88
2023-04-11T00:50:55.202Z,100883.38
2023-04-11T00:55:58.898Z,100872.25
2023-04-11T01:01:02.242Z,100886.94
2023-04-11T01:06:08.921Z,100883.13
2023-04-11T01:11:16.333Z,100867.06
2023-04-11T01:16:21.611Z,100870.72
2023-04-11T01:21:27.793Z,100867.78
2023-04-11T01:26:32.338Z,100877.09
2023-04-11T01:31:35.630Z,100886.66
2023-04-11T01:36:38.661Z,100875.69
2023-04-11T01:41:43.496Z,100888.66
2023-04-11T01:46:47.669Z,100900.66
2023-04-11T01:51:52.183Z,100911.84
2023-04-11T01:56:58.091Z,100907.59
2023-04-11T02:02:01.599Z,100901.75
2023-04-11T02:07:04.927Z,100904.38
2023-04-11T02:12:10.440Z,100928.84
2023-04-11T02:17:14.323Z,100923.56
2023-04-11T02:22:17.662Z,100914.56
2023-04-11T02:27:23.375Z,100915.84
2023-04-11T02:32:27.720Z,100932.81
2023-04-11T02:37:31.084Z,100933.28
2023-04-11T02:42:35.582Z,100938.28
2023-04-11T02:47:39.006Z,100953.88
2023-04-11T02:52:47.661Z,100961.28
2023-04-11T02:57:54.228Z,100958.38
2023-04-11T03:02:59.360Z,100959.53
2023-04-11T03:08:04.088Z,100964.34
2023-04-11T03:13:10.336Z,100964.63
2023-04-11T03:18:13.686Z,100967.50
2023-04-11T03:23:19.925Z,100964.28
2023-04-11T03:28:24.719Z,100985.34
2023-04-11T03:33:29.133Z,100988.72
2023-04-11T03:38:32.542Z,100981.81
2023-04-11T03:43:37.164Z,101001.00
2023-04-11T03:48:40.484Z,100987.59
2023-04-11T03:53:45.697Z,100998.13
2023-04-11T03:59:26.061Z,101003.97
2023-04-11T04:04:34.856Z,100993.59
2023-04-11T04:09:56.812Z,101022.06
2023-04-11T04:15:01.678Z,101035.06
2023-04-11T04:20:06.524Z,101029.47
2023-04-11T04:25:16.120Z,101036.84
2023-04-11T04:30:22.394Z,101035.25
2023-04-11T04:35:41.533Z,101047.31
2023-04-11T04:40:45.225Z,101046.19
2023-04-11T04:45:50.185Z,101055.81
2023-04-11T04:51:00.554Z,101071.28
2023-04-11T04:56:04.245Z,101072.00
2023-04-11T05:01:12.479Z,101081.56
2023-04-11T05:06:16.621Z,101089.25
2023-04-11T05:11:23.179Z,101101.81
2023-04-11T05:16:27.929Z,101109.00
2023-04-11T05:21:32.115Z,101110.63
2023-04-11T05:26:35.651Z,101122.53
2023-04-11T05:31:41.132Z,101122.59
2023-04-11T05:36:46.477Z,101114.97
2023-04-11T05:41:49.918Z,101135.75
2023-04-11T05:46:54.604Z,101130.53
2023-04-11T05:51:57.666Z,101127.53
2023-04-11T05:57:02.199Z,101142.50
2023-04-11T06:02:07.561Z,101144.63
2023-04-11T06:07:11.052Z,101132.31
2023-04-11T06:12:14.081Z,101142.50
2023-04-11T06:17:18.842Z,101156.72
2023-04-11T06:22:22.094Z,101158.13
2023-04-11T06:27:25.044Z,101165.50
2023-04-11T06:32:29.490Z,101170.72
2023-04-11T06:37:32.632Z,101204.22
2023-04-11T06:42:35.866Z,101185.88
2023-04-11T06:47:41.415Z,101179.19
2023-04-11T06:52:44.513Z,101184.88
2023-04-11T06:57:47.528Z,101200.53
2023-04-11T07:02:52.765Z,101206.81
2023-04-11T07:07:56.076Z,101202.19
2023-04-11T07:12:59.027Z,101215.28
2023-04-11T07:18:03.615Z,101218.84
2023-04-11T07:23:06.914Z,101227.56
2023-04-11T07:28:09.938Z,101231.56
2023-04-11T07:33:14.775Z,101231.47
2023-04-11T07:38:27.165Z,101237.38
2023-04-11T07:43:30.773Z,101255.88
2023-04-11T07:48:35.372Z,101253.47
2023-04-11T07:53:38.422Z,101265.00
2023-04-11T07:58:42.195Z,101257.44
2023-04-11T08:03:47.074Z,101252.81
2023-04-11T08:08:51.247Z,101258.34
2023-04-11T08:13:54.402Z,101289.16
2023-04-11T08:18:59.320Z,101253.16
2023-04-11T08:24:02.447Z,101278.38
2023-04-11T08:29:05.700Z,101288.78
2023-04-11T08:34:10.491Z,101294.69
2023-04-11T08:39:13.678Z,101298.22
2023-04-11T08:44:17.110Z,101318.53
2023-04-11T08:49:21.703Z,101317.53
2023-04-11T08:54:25.239Z,101290.81
2023-04-11T08:59:28.351Z,101309.38
2023-04-11T09:04:40.836Z,101318.19
2023-04-11T09:09:44.538Z,101318.78
2023-04-11T09:14:51.191Z,101294.66
2023-04-11T09:19:55.617Z,101309.78
2023-04-11T09:25:04.486Z,101340.06
2023-04-11T09:30:20.239Z,101344.13
2023-04-11T09:35:28.803Z,101339.69
2023-04-11T09:40:42.742Z,101346.47
2023-04-11T09:45:53.991Z,101348.22
2023-04-11T09:51:00.788Z,101337.81
2023-04-11T09:56:04.827Z,101329.34
2023-04-11T10:01:10.826Z,101335.81
2023-04-11T10:06:22.798Z,101332.06
2023-04-11T10:11:26.122Z,101335.44
2023-04-11T10:16:32.534Z,101342.31
2023-04-11T10:21:41.895Z,101316.50
2023-04-11T10:26:50.823Z,101327.72
2023-04-11T10:32:11.818Z,101336.44
2023-04-11T10:37:16.526Z,101359.97
2023-04-11T10:42:29.005Z,101342.66
2023-04-11T10:47:32.963Z,101325.41
2023-04-11T10:52:39.942Z,101345.81
2023-04-11T10:58:08.494Z,101342.25
2023-04-11T11:03:16.665Z,101317.97
2023-04-11T11:08:30.771Z,101342.56
2023-04-11T11:13:41.194Z,101346.53
2023-04-11T11:18:47.549Z,101340.47
2023-04-11T11:23:59.575Z,101337.25
2023-04-11T11:29:03.670Z,101353.13
2023-04-11T11:34:22.262Z,101346.13
2023-04-11T11:39:29.606Z,101362.50
2023-04-11T11:44:33.845Z,101353.09
2023-04-11T11:49:47.024Z,101347.91
2023-04-11T11:54:51.575Z,101381.16
2023-04-11T11:59:56.293Z,101378.22
2023-04-11T12:05:00.832Z,101372.81
2023-04-11T12:10:08.965Z,101377.50
2023-04-11T12:15:13.817Z,101368.72
2023-04-11T12:20:17.668Z,101362.00
2023-04-11T12:25:22.122Z,101371.88
2023-04-11T12:30:25.287Z,101377.91
2023-04-11T12:35:28.388Z,101391.16
2023-04-11T12:40:33.001Z,101367.69
2023-04-11T12:45:36.509Z,101385.31
2023-04-11T12:50:39.647Z,101372.53
2023-04-11T12:55:44.200Z,101379.63
2023-04-11T13:00:47.458Z,101378.22
2023-04-11T13:05:50.940Z,101366.69
2023-04-11T13:10:56.032Z,101377.97
2023-04-11T13:15:59.379Z,101360.31
2023-04-11T13:21:02.869Z,101370.63
2023-04-11T13:26:08.234Z,101382.03
2023-04-11T13:31:11.628Z,101368.84
2023-04-11T13:36:14.815Z,101370.91
2023-04-11T13:41:19.686Z,101347.31
2023-04-11T13:46:23.354Z,101366.09
2023-04-11T13:51:27.305Z,101348.13
2023-04-11T13:56:31.756Z,101371.34
2023-04-11T14:01:35.222Z,101341.84
2023-04-11T14:06:38.573Z,101319.13
2023-04-11T14:11:43.737Z,101320.78
2023-04-11T14:16:47.169Z,101327.72
2023-04-11T14:21:51.738Z,101301.91
2023-04-11T14:26:56.494Z,101295.44
2023-04-11T14:31:59.832Z,101296.84
2023-04-11T14:37:03.153Z,101301.69
2023-04-11T14:42:09.183Z,101284.06
2023-04-11T14:47:12.934Z,101308.88
2023-04-11T14:52:16.042Z,101306.31
2023-04-11T14:57:23.496Z,101279.78
2023-04-11T15:02:27.893Z,101281.03
2023-04-11T15:07:32.225Z,101271.56
2023-04-11T15:12:36.891Z,101266.91
2023-04-11T15:17:42.123Z,101261.72
2023-04-11T15:22:46.747Z,101251.69
2023-04-11T15:27:51.889Z,101262.69
2023-04-11T15:32:55.253Z,101259.34
2023-04-11T15:38:00.619Z,101240.25
2023-04-11T15:43:06.601Z,101238.56
2023-04-11T15:48:11.819Z,101255.19
2023-04-11T15:53:14.969Z,101225.13
2023-04-11T15:58:19.429Z,101228.00
2023-04-11T16:03:23.072Z,101225.50
2023-04-11T16:08:27.275Z,101214.16
2023-04-11T16:13:31.977Z,101198.81
2023-04-11T16:18:35.145Z,101193.41
2023-04-11T16:23:38.251Z,101198.72
2023-04-11T16:28:42.723Z,101195.63
2023-04-11T16:33:45.758Z,101169.59
2023-04-11T16:38:49.734Z,101177.97
2023-04-11T16:43:54.517Z,101169.91
2023-04-11T16:48:57.874Z,101160.16
2023-04-11T16:54:02.391Z,101154.84
2023-04-11T16:59:06.981Z,101150.59
2023-04-11T17:04:10.382Z,101137.34
2023-04-11T17:09:13.431Z,101136.53
2023-04-11T17:14:18.203Z,101122.63
2023-04-11T17:19:22.249Z,101124.16
2023-04-11T17:24:27.110Z,101110.38
2023-04-11T17:29:31.973Z,101109.41
2023-04-11T17:34:35.358Z,101104.13
2023-04-11T17:39:38.420Z,101090.66
2023-04-11T17:44:42.721Z,101078.72
2023-04-11T17:49:46.308Z,101070.47
2023-04-11T17:54:49.923Z,101064.78
2023-04-11T17:59:54.417Z,101060.09
2023-04-11T18:04:57.732Z,101050.06
2023-04-11T18:10:01.352Z,101050.78
2023-04-11T18:15:07.377Z,101048.88
2023-04-11T18:20:12.386Z,101046.56
2023-04-11T18:25:15.809Z,101052.75
2023-04-11T18:30:20.216Z,101034.81
2023-04-11T18:35:25.327Z,101018.31
2023-04-11T18:40:29.456Z,101036.53
2023-04-11T18:45:34.689Z,101035.00
2023-04-11T18:50:43.018Z,101025.78
2023-04-11T18:55:46.215Z,101039.59
2023-04-11T19:00:51.164Z,101010.91
2023-04-11T19:05:54.272Z,101034.13
2023-04-11T19:10:57.430Z,101019.13
2023-04-11T19:16:02.126Z,101005.72
2023-04-11T19:21:05.327Z,101009.22
2023-04-11T19:26:08.818Z,101007.25
2023-04-11T19:31:14.049Z,101000.81
2023-04-11T19:36:18.459Z,100984.66
2023-04-11T19:41:23.659Z,100971.09
2023-04-11T19:46:28.464Z,100965.59
2023-04-11T19:51:31.696Z,100941.31
2023-04-11T19:56:34.731Z,100936.16
2023-04-11T20:01:39.090Z,100927.13
2023-04-11T20:06:44.056Z,100923.50
2023-04-11T20:11:50.938Z,100924.94
2023-04-11T20:16:55.422Z,100918.69
2023-04-11T20:22:00.857Z,100916.66
2023-04-11T20:27:04.207Z,100903.34
2023-04-11T20:32:08.797Z,100883.84
2023-04-11T20:37:13.076Z,100874.91
2023-04-11T20:42:16.136Z,100869.56
2023-04-11T20:47:20.640Z,100851.88
2023-04-11T20:52:23.699Z,100827.06
2023-04-11T20:57:29.879Z,100831.41
2023-04-11T21:02:34.623Z,100822.47
2023-04-11T21:07:37.875Z,100804.66
2023-04-11T21:12:43.092Z,100804.66
2023-04-11T21:17:48.003Z,100794.91
2023-04-11T21:22:53.855Z,100787.56
2023-04-11T21:27:56.992Z,100763.44
2023-04-11T21:33:01.549Z,100778.88
2023-04-11T21:38:04.684Z,100777.72
2023-04-11T21:43:08.391Z,100769.81
2023-04-11T21:48:12.942Z,100767.00
2023-04-11T21:53:16.984Z,100755.31
2023-04-11T21:58:29.129Z,100756.84
2023-04-11T22:03:34.445Z,100754.03
2023-04-11T22:08:39.201Z,100737.13
2023-04-11T22:13:46.299Z,100740.66
2023-04-11T22:18:54.940Z,100722.75
2023-04-11T22:23:58.295Z,100710.19
2023-04-11T22:29:03.861Z,100702.81
2023-04-11T22:34:09.542Z,100685.00
2023-04-11T22:39:12.548Z,100661.28
2023-04-11T22:44:15.730Z,100650.47
2023-04-11T22:49:21.142Z,100637.88
2023-04-11T22:54:24.245Z,100629.91
2023-04-11T22:59:28.345Z,100607.88
2023-04-11T23:04:33.343Z,100604.22
2023-04-11T23:09:36.572Z,100597.22
2023-04-11T23:14:39.601Z,100594.41
2023-04-11T23:19:44.222Z,100577.59
2023-04-11T23:24:47.327Z,100569.38
2023-04-11T23:29:51.103Z,100555.16
2023-04-11T23:34:55.822Z,100549.88
2023-04-11T23:39:59.488Z,100533.63
2023-04-11T23:45:02.533Z,100512.31
2023-04-11T23:50:08.071Z,100519.41
2023-04-11T23:55:12.323Z,100490.34
